Atwell, New York
Current Conditions -  °F | °C
As of 12:53 PM on Monday 26 Jan 2015 (Local Time) from KRME Reporting Station
Haze Haze  
Wind Chill:   Ceiling: 4000
Heat Index: 15°   Visibility: 6mi
Dew Point:   Wind: 9mph
Humidity: 74%   Direction: 140°SE
Pressure: 30"   Gusts: NA
Location:  43.501°N, 75.1602°W
Report Text: KRME 261753Z 14008KT 6SM HZ OVC040 M09/M13 A3000 RMK AO2 UPB23E25SNE18B25E53 SLP169 P0000 60000 T10941133 11094 21150 58021
Loading
Personal Weather Stations






























Interactive Weather Map New forecast layout! Learn more

10-Day Weather Forecast

Advertisements
Track Severe Weather on mobile